Time;durP1;ratioP1;P1;durP2;ratioP2;P2;SDS_P1;SDS_P2;PMS_P1;PMS_P2;Temp;Humidity;BMP_temperature;BMP_pressure;BME280_temperature;BME280_humidity;BME280_pressure;Samples;Min_cycle;Max_cycle;Signal;HPM_P1;HPM_P2
2024/02/15 00:09:06;;;;;;;2.40;1.90;;;;;;;2.88;81.67;99514.23;103098;1291;599537;-25
2024/02/15 00:11:34;;;;;;;5.90;3.50;;;;;;;2.77;81.27;99510.59;104826;1270;61196;-25
2024/02/15 00:14:02;;;;;;;5.30;3.20;;;;;;;2.55;81.84;99508.39;104819;1270;61162;-26
2024/02/15 00:16:30;;;;;;;5.40;2.90;;;;;;;2.47;82.29;99514.38;104809;1267;70982;-29
2024/02/15 00:18:59;;;;;;;5.30;3.60;;;;;;;2.44;83.08;99518.10;104789;1267;74297;-28
2024/02/15 00:21:27;;;;;;;4.90;3.50;;;;;;;2.06;84.47;99519.41;104587;1268;71423;-28
2024/02/15 00:23:56;;;;;;;3.80;2.50;;;;;;;2.35;83.84;99515.21;104698;1268;185632;-28
2024/02/15 00:34:02;;;;;;;4.00;2.80;;;;;;;2.03;84.85;99526.75;102698;1294;599406;-26
2024/02/15 00:36:33;;;;;;;5.90;3.20;;;;;;;2.20;84.65;99526.42;105095;1264;61117;-26
2024/02/15 00:39:01;;;;;;;4.30;3.20;;;;;;;2.57;82.81;99523.05;104900;1264;61075;-26
2024/02/15 00:41:29;;;;;;;8.00;3.60;;;;;;;2.53;82.43;99519.80;105135;1264;72243;-26
2024/02/15 00:51:35;;;;;;;5.50;2.80;;;;;;;2.07;85.21;99522.29;102759;1289;600070;-25
2024/02/15 00:54:03;;;;;;;4.60;2.90;;;;;;;2.46;83.34;99520.60;104800;1269;61186;-26
2024/02/15 00:56:32;;;;;;;6.60;2.60;;;;;;;2.60;82.33;99516.27;104853;1267;61143;-26
2024/02/15 00:59:03;;;;;;;7.80;3.80;;;;;;;2.36;83.00;99519.97;104878;1267;72273;-26
2024/02/15 01:09:08;;;;;;;4.30;2.80;;;;;;;2.82;81.57;99522.71;102731;1294;600031;-25
2024/02/15 01:11:37;;;;;;;6.00;3.80;;;;;;;2.41;82.85;99520.25;104899;1271;61193;-28
2024/02/15 01:14:06;;;;;;;6.10;3.40;;;;;;;2.12;84.10;99527.73;104916;1264;61138;-28
2024/02/15 01:16:35;;;;;;;3.40;2.20;;;;;;;2.05;84.97;99525.27;104838;1272;72216;-29
2024/02/15 01:19:03;;;;;;;3.40;2.30;;;;;;;2.36;83.64;99523.70;104848;1271;74296;-29
2024/02/15 01:21:33;;;;;;;6.50;3.60;;;;;;;2.37;82.94;99523.86;104870;1270;72518;-28
2024/02/15 01:31:38;;;;;;;4.00;2.90;;;;;;;2.27;84.06;99516.87;102718;1294;600195;-26
2024/02/15 01:34:06;;;;;;;6.70;3.90;;;;;;;2.26;83.70;99517.27;104837;1270;61265;-26
2024/02/15 01:36:34;;;;;;;3.90;3.20;;;;;;;2.34;83.17;99521.23;104825;1267;61717;-26
2024/02/15 01:39:02;;;;;;;4.60;2.90;;;;;;;2.63;82.01;99524.02;104857;1265;72227;-28
2024/02/15 01:41:30;;;;;;;4.40;3.40;;;;;;;2.66;81.61;99526.98;104832;1267;74751;-28
2024/02/15 01:43:58;;;;;;;4.40;3.10;;;;;;;2.31;82.81;99529.56;104819;1266;72686;-28
2024/02/15 01:54:04;;;;;;;4.80;3.30;;;;;;;2.59;81.12;99535.69;102668;1292;598806;-25
2024/02/15 01:56:32;;;;;;;7.50;4.50;;;;;;;2.42;81.99;99538.58;104803;1266;61012;-26
2024/02/15 01:59:01;;;;;;;4.50;3.40;;;;;;;2.28;82.72;99540.48;105627;1261;61113;-28
2024/02/15 02:01:32;;;;;;;4.30;2.80;;;;;;;2.60;82.02;99536.48;105688;1254;72264;-28
2024/02/15 02:04:00;;;;;;;2.80;2.00;;;;;;;2.67;81.27;99534.98;105645;1254;74278;-28
2024/02/15 02:06:28;;;;;;;6.80;2.90;;;;;;;2.46;81.57;99532.08;105635;1259;72677;-28
2024/02/15 02:08:57;;;;;;;3.30;2.40;;;;;;;2.46;82.14;99534.14;105609;1256;61170;-29
2024/02/15 02:11:25;;;;;;;4.70;3.10;;;;;;;2.13;83.44;99534.39;105754;1253;61057;-28
2024/02/15 02:13:52;;;;;;;3.30;2.50;;;;;;;1.97;84.65;99537.04;105707;1253;72229;-28
2024/02/15 02:16:26;;;;;;;6.10;3.60;;;;;;;2.27;83.25;99536.57;105746;1258;73195;-28
2024/02/15 02:18:57;;;;;;;4.10;2.90;;;;;;;2.35;82.64;99535.27;105680;1261;72647;-28
2024/02/15 02:21:26;;;;;;;5.60;3.20;;;;;;;2.26;83.01;99534.91;105662;1255;61227;-29
2024/02/15 02:23:57;;;;;;;3.80;2.80;;;;;;;1.98;84.28;99530.16;105712;1253;61005;-28
2024/02/15 02:26:25;;;;;;;5.70;4.00;;;;;;;1.82;85.56;99531.64;105681;1253;71282;-28
2024/02/15 02:36:33;;;;;;;6.10;3.80;;;;;;;2.36;82.48;99539.98;102721;1292;599693;-26
2024/02/15 02:39:00;;;;;;;6.50;3.80;;;;;;;2.43;81.79;99538.20;105012;1267;61125;-26
2024/02/15 02:49:05;;;;;;;3.80;2.20;;;;;;;2.37;82.93;99542.71;102685;1295;600314;-28
2024/02/15 02:51:34;;;;;;;4.30;2.70;;;;;;;2.39;81.98;99545.56;104927;1269;61250;-29
2024/02/15 02:54:05;;;;;;;3.50;2.20;;;;;;;1.97;84.06;99546.98;104832;1273;61171;-27
2024/02/15 03:03:14;;;;;;;6.00;2.90;;;;;;;2.66;80.67;99556.65;102724;1295;599416;-28
2024/02/15 03:05:42;;;;;;;4.90;3.70;;;;;;;2.07;83.29;99560.65;105039;1269;61273;-28
2024/02/15 03:15:50;;;;;;;4.10;3.30;;;;;;;2.45;81.51;99567.92;102666;1296;598793;-25
2024/02/15 03:18:18;;;;;;;5.20;3.30;;;;;;;2.39;81.87;99568.67;104804;1267;61165;-26
2024/02/15 03:20:48;;;;;;;3.50;2.80;;;;;;;2.17;82.54;99568.17;104837;1267;61146;-26
2024/02/15 03:23:17;;;;;;;4.30;3.00;;;;;;;1.93;83.50;99567.20;104854;1270;70976;-27
2024/02/15 03:25:45;;;;;;;4.80;2.40;;;;;;;2.24;82.78;99570.77;104878;1271;74328;-28
2024/02/15 03:28:15;;;;;;;2.40;1.80;;;;;;;2.73;80.55;99568.02;104768;1268;71166;-29
2024/02/15 03:30:43;;;;;;;4.00;3.10;;;;;;;2.64;80.24;99569.05;104723;1270;61267;-28
2024/02/15 03:33:12;;;;;;;3.50;1.80;;;;;;;2.32;81.35;99565.54;104868;1269;61176;-28
2024/02/15 03:35:40;;;;;;;4.30;2.80;;;;;;;2.45;80.90;99564.69;105025;1277;72157;-28
2024/02/15 03:38:08;;;;;;;4.10;2.30;;;;;;;2.30;81.65;99563.02;104844;1270;74401;-28
2024/02/15 03:40:37;;;;;;;4.10;2.40;;;;;;;1.85;83.72;99564.23;105017;1269;72274;-29
2024/02/15 03:51:01;;;;;;;4.90;3.10;;;;;;;2.31;81.76;99570.88;102486;1296;616427;-28
2024/02/15 03:53:31;;;;;;;3.50;2.60;;;;;;;2.17;82.22;99574.17;104863;1270;61088;-27
2024/02/15 03:55:58;;;;;;;3.70;2.40;;;;;;;2.45;81.07;99575.13;104855;1267;61087;-27
2024/02/15 03:58:25;;;;;;;3.10;2.00;;;;;;;2.57;80.28;99573.48;105103;1268;72192;-28
2024/02/15 04:00:53;;;;;;;5.50;3.00;;;;;;;2.31;81.35;99567.95;105134;1267;75264;-27
2024/02/15 04:03:20;;;;;;;5.40;3.20;;;;;;;2.19;81.83;99573.04;105536;1254;200472;-27
2024/02/15 04:05:48;;;;;;;4.10;3.30;;;;;;;2.01;82.88;99574.25;105683;1254;61104;-27
2024/02/15 04:08:16;;;;;;;4.30;2.70;;;;;;;1.91;83.34;99573.23;105948;1251;61119;-27
2024/02/15 04:10:45;;;;;;;4.00;2.90;;;;;;;2.28;82.41;99577.01;105959;1255;71103;-27
2024/02/15 04:13:13;;;;;;;1.90;1.60;;;;;;;2.55;80.61;99579.02;105718;1257;73051;-27
2024/02/15 04:15:43;;;;;;;5.60;3.40;;;;;;;2.54;80.31;99582.13;105882;1254;72446;-27
2024/02/15 04:18:12;;;;;;;6.30;3.60;;;;;;;2.04;82.61;99583.70;105553;1254;61141;-28
2024/02/15 04:20:44;;;;;;;4.50;3.40;;;;;;;1.74;83.96;99585.51;105735;1257;61193;-27
2024/02/15 04:23:12;;;;;;;4.30;2.90;;;;;;;1.88;84.27;99586.36;105439;1254;73001;-27
2024/02/15 04:25:40;;;;;;;4.50;3.20;;;;;;;2.62;80.57;99585.95;105748;1254;74178;-27
2024/02/15 04:28:08;;;;;;;3.00;2.30;;;;;;;2.88;79.03;99588.00;105853;1254;72478;-27
2024/02/15 04:30:38;;;;;;;2.90;2.20;;;;;;;2.83;79.30;99585.95;105782;1254;61142;-28
2024/02/15 04:33:05;;;;;;;6.20;2.80;;;;;;;2.59;79.87;99587.94;105811;1254;61158;-27
2024/02/15 04:35:32;;;;;;;5.10;3.80;;;;;;;2.19;81.56;99593.79;105915;1253;73064;-27
2024/02/15 04:37:59;;;;;;;3.20;2.50;;;;;;;2.29;82.00;99597.67;105812;1254;74221;-27
2024/02/15 04:40:26;;;;;;;2.80;2.30;;;;;;;3.03;79.03;99599.72;105835;1253;72633;-27
2024/02/15 04:42:53;;;;;;;2.40;2.10;;;;;;;2.86;78.40;99602.98;105653;1253;61052;-27
2024/02/15 04:45:22;;;;;;;4.30;3.30;;;;;;;2.34;80.70;99598.86;105525;1257;61094;-27
2024/02/15 04:47:52;;;;;;;3.10;2.00;;;;;;;2.35;80.81;99597.62;105604;1254;72971;-27
2024/02/15 04:50:20;;;;;;;4.30;2.60;;;;;;;2.19;80.83;99600.77;105673;1253;74409;-27
2024/02/15 04:52:49;;;;;;;2.70;2.30;;;;;;;2.14;81.94;99601.48;105481;1253;72678;-27
2024/02/15 04:55:17;;;;;;;3.40;1.60;;;;;;;2.24;81.11;99601.79;105579;1254;61247;-27
2024/02/15 04:57:47;;;;;;;5.30;2.10;;;;;;;2.27;80.99;99597.94;105591;1259;61164;-27
2024/02/15 05:00:15;;;;;;;2.70;2.20;;;;;;;2.32;80.97;99602.39;105552;1254;72910;-27
2024/02/15 05:02:44;;;;;;;3.90;3.00;;;;;;;2.17;81.44;99603.79;105427;1255;74423;-27
2024/02/15 05:05:12;;;;;;;2.70;1.90;;;;;;;2.14;82.09;99605.77;105870;1253;72407;-27
2024/02/15 05:07:43;;;;;;;4.20;3.00;;;;;;;2.51;80.59;99612.77;105670;1254;61107;-27
2024/02/15 05:10:12;;;;;;;4.20;3.20;;;;;;;2.52;80.39;99611.20;105822;1256;61189;-28
2024/02/15 05:12:40;;;;;;;4.80;3.10;;;;;;;2.68;79.76;99617.41;105693;1254;73044;-27
2024/02/15 05:15:10;;;;;;;3.10;2.70;;;;;;;2.46;80.49;99612.64;105699;1254;74078;-27
2024/02/15 05:17:40;;;;;;;4.40;3.40;;;;;;;2.41;80.66;99617.79;105650;1260;72546;-27
2024/02/15 05:20:13;;;;;;;3.90;2.30;;;;;;;2.47;80.54;99618.77;105653;1260;61202;-27
2024/02/15 05:22:40;;;;;;;8.50;3.60;;;;;;;2.76;79.44;99623.95;105706;1257;61181;-27
2024/02/15 05:25:09;;;;;;;4.10;2.50;;;;;;;3.01;78.14;99626.05;105838;1254;72780;-27
2024/02/15 05:27:36;;;;;;;3.80;2.30;;;;;;;3.03;78.05;99625.30;105817;1254;74862;-27
2024/02/15 05:30:08;;;;;;;4.90;3.50;;;;;;;2.80;78.34;99628.80;105794;1254;72672;-27
2024/02/15 05:32:41;;;;;;;6.00;3.70;;;;;;;2.37;80.46;99626.86;105484;1260;61186;-27
2024/02/15 05:35:10;;;;;;;4.50;3.10;;;;;;;2.05;82.50;99627.52;105889;1257;61155;-28
2024/02/15 05:37:38;;;;;;;5.20;3.30;;;;;;;2.51;80.50;99629.58;105728;1254;71017;-27
2024/02/15 05:40:07;;;;;;;3.70;3.00;;;;;;;2.54;80.21;99630.30;105688;1254;72753;-27
2024/02/15 05:42:34;;;;;;;6.10;2.10;;;;;;;2.44;80.54;99631.71;105721;1258;71913;-27
2024/02/15 05:45:25;;;;;;;3.50;2.60;;;;;;;2.77;79.27;99630.13;105833;1253;61096;-27
2024/02/15 05:47:52;;;;;;;6.20;3.50;;;;;;;2.21;81.10;99633.12;105662;1257;61244;-27
2024/02/15 05:50:21;;;;;;;5.60;3.30;;;;;;;2.35;80.99;99632.06;105941;1254;73008;-27
2024/02/15 05:52:48;;;;;;;2.40;2.20;;;;;;;2.20;81.68;99636.75;105548;1258;74397;-27
2024/02/15 05:55:16;;;;;;;2.30;2.10;;;;;;;2.66;80.03;99634.81;105774;1252;72606;-27
2024/02/15 05:57:43;;;;;;;3.30;2.60;;;;;;;2.70;79.08;99636.56;105944;1255;61164;-27
2024/02/15 06:00:11;;;;;;;3.90;2.50;;;;;;;2.19;81.23;99640.01;105928;1255;61190;-27
2024/02/15 06:02:49;;;;;;;3.80;2.80;;;;;;;1.99;82.28;99642.98;105701;1254;73038;-27
2024/02/15 06:05:17;;;;;;;3.40;1.70;;;;;;;2.58;80.82;99642.48;105963;1256;72566;-27
2024/02/15 06:07:45;;;;;;;4.40;2.90;;;;;;;3.19;77.57;99643.16;105754;1254;72749;-27
2024/02/15 06:10:14;;;;;;;3.80;2.20;;;;;;;2.79;78.81;99645.13;105885;1253;61445;-27
2024/02/15 06:12:41;;;;;;;4.40;3.30;;;;;;;3.01;78.13;99648.52;105943;1254;61131;-27
2024/02/15 06:15:14;;;;;;;6.80;4.50;;;;;;;2.71;78.93;99645.63;105952;1254;72839;-27
2024/02/15 06:17:45;;;;;;;5.60;3.50;;;;;;;2.39;80.96;99647.86;105716;1254;73086;-27
2024/02/15 06:20:19;;;;;;;7.50;4.40;;;;;;;2.66;79.93;99651.46;105554;1254;72511;-27
2024/02/15 06:22:47;;;;;;;5.80;3.40;;;;;;;2.80;78.63;99647.98;105629;1258;61185;-27
2024/02/15 06:25:15;;;;;;;3.10;2.10;;;;;;;2.27;80.94;99649.35;105727;1253;61208;-27
2024/02/15 06:27:42;;;;;;;4.90;2.90;;;;;;;2.35;81.15;99650.91;105718;1253;72926;-27
2024/02/15 06:41:19;;;;;;;4.40;2.80;;;;;;;2.95;78.24;99657.52;105752;1253;73250;-27
2024/02/15 06:43:48;;;;;;;5.50;4.00;;;;;;;2.61;79.63;99661.05;105919;1256;74539;-27
2024/02/15 06:46:15;;;;;;;5.10;3.60;;;;;;;2.06;82.21;99666.55;105920;1254;72650;-26
2024/02/15 06:48:46;;;;;;;4.10;3.20;;;;;;;2.55;81.00;99666.94;105872;1254;61045;-27
2024/02/15 06:51:14;;;;;;;5.90;4.10;;;;;;;2.72;79.20;99668.88;105834;1253;61034;-27
2024/02/15 06:53:42;;;;;;;51.00;18.00;;;;;;;2.68;80.02;99674.16;105943;1253;72857;-27
2024/02/15 06:56:10;;;;;;;9.00;4.70;;;;;;;2.50;80.16;99671.11;105688;1254;74313;-27
2024/02/15 06:58:37;;;;;;;7.70;4.40;;;;;;;2.28;81.92;99669.68;105688;1258;72618;-27
2024/02/15 07:01:05;;;;;;;13.20;6.50;;;;;;;1.83;83.24;99674.04;105790;1253;61150;-27
2024/02/15 07:03:32;;;;;;;16.70;9.10;;;;;;;2.29;82.03;99673.58;105670;1256;61164;-27
2024/02/15 07:05:59;;;;;;;7.70;4.50;;;;;;;2.59;79.85;99670.77;105860;1253;72880;-27
2024/02/15 07:08:27;;;;;;;9.70;6.10;;;;;;;2.39;80.90;99675.77;105808;1254;74210;-31
2024/02/15 07:10:54;;;;;;;7.10;4.10;;;;;;;2.18;81.31;99674.64;105523;1260;72722;-28
2024/02/15 07:13:22;;;;;;;5.10;4.00;;;;;;;1.82;83.28;99674.61;105861;1257;62857;-27
2024/02/15 07:15:49;;;;;;;6.40;4.30;;;;;;;2.21;82.62;99675.60;105922;1257;61161;-27
2024/02/15 07:18:18;;;;;;;8.80;4.80;;;;;;;2.96;79.71;99678.25;105936;1253;72999;-27
2024/02/15 07:20:45;;;;;;;7.60;5.10;;;;;;;3.19;77.79;99675.06;105790;1253;73117;-27
2024/02/15 07:23:13;;;;;;;213.50;93.90;;;;;;;3.30;77.70;99674.13;105725;1259;72445;-27
2024/02/15 07:25:41;;;;;;;33.60;15.30;;;;;;;2.83;78.62;99674.98;105926;1252;61064;-28
2024/02/15 07:28:08;;;;;;;20.70;10.80;;;;;;;2.86;78.81;99677.26;105684;1260;61681;-27
2024/02/15 07:30:36;;;;;;;5.80;3.80;;;;;;;2.73;79.78;99674.48;105724;1254;72802;-27
2024/02/15 07:33:04;;;;;;;5.40;3.40;;;;;;;2.85;79.66;99676.09;105938;1254;74162;-27
2024/02/15 07:35:33;;;;;;;4.80;3.10;;;;;;;3.16;78.11;99675.40;105939;1254;72585;-27
2024/02/15 07:38:01;;;;;;;8.00;3.50;;;;;;;3.01;78.72;99677.70;105799;1253;61052;-27
2024/02/15 07:40:29;;;;;;;14.80;6.90;;;;;;;3.19;78.02;99676.61;105840;1254;61231;-29
2024/02/15 07:42:59;;;;;;;9.20;4.90;;;;;;;2.90;78.69;99673.15;105576;1254;73035;-27
2024/02/15 07:45:27;;;;;;;24.10;12.40;;;;;;;2.46;80.64;99667.80;105726;1253;74327;-27
2024/02/15 07:47:55;;;;;;;7.00;3.40;;;;;;;2.68;80.00;99667.50;105902;1253;71707;-27
2024/02/15 07:50:22;;;;;;;7.90;4.70;;;;;;;3.05;78.40;99666.91;105713;1257;61145;-27
2024/02/15 07:52:51;;;;;;;12.40;6.80;;;;;;;3.37;76.49;99663.71;105920;1251;61096;-27
2024/02/15 07:55:19;;;;;;;21.90;10.20;;;;;;;3.29;76.14;99668.83;105953;1253;73373;-27
2024/02/15 07:57:48;;;;;;;10.00;5.80;;;;;;;3.19;76.73;99671.46;105738;1254;74229;-27
2024/02/15 08:00:16;;;;;;;4.20;2.90;;;;;;;3.47;76.68;99676.84;105906;1254;71778;-27
2024/02/15 08:02:43;;;;;;;15.90;10.60;;;;;;;3.23;76.71;99681.27;105701;1253;61744;-27
2024/02/15 08:05:11;;;;;;;190.90;93.20;;;;;;;3.26;76.79;99685.26;105639;1256;61157;-27
2024/02/15 08:07:47;;;;;;;10.10;5.40;;;;;;;3.66;74.79;99683.10;105952;1252;73892;-27
2024/02/15 08:10:14;;;;;;;6.40;4.00;;;;;;;3.57;74.67;99688.48;105749;1258;74162;-27
2024/02/15 08:12:42;;;;;;;11.20;5.50;;;;;;;3.64;73.93;99689.52;105942;1253;72381;-27
2024/02/15 08:15:11;;;;;;;16.80;8.40;;;;;;;3.56;74.29;99694.84;105714;1258;61174;-27
2024/02/15 08:17:45;;;;;;;211.90;70.40;;;;;;;3.52;74.53;99694.68;105862;1253;61143;-27
2024/02/15 08:20:14;;;;;;;8.60;4.10;;;;;;;3.53;74.59;99692.91;105710;1258;72672;-27
2024/02/15 08:22:43;;;;;;;236.10;104.40;;;;;;;3.72;73.85;99689.70;105714;1255;74197;-27
2024/02/15 08:25:11;;;;;;;17.40;8.50;;;;;;;3.80;71.95;99688.86;105721;1253;72486;-27
2024/02/15 08:27:43;;;;;;;12.20;5.80;;;;;;;3.72;71.67;99688.02;105674;1253;61240;-27
2024/02/15 08:30:14;;;;;;;35.40;20.70;;;;;;;3.30;73.62;99692.98;105676;1253;61186;-27
2024/02/15 08:32:42;;;;;;;8.60;4.70;;;;;;;3.40;73.39;99691.89;105920;1254;73692;-26
2024/02/15 08:35:12;;;;;;;2.00;1.40;;;;;;;3.16;74.01;99695.95;105920;1256;74083;-27
2024/02/15 08:37:41;;;;;;;10.80;5.80;;;;;;;3.16;74.26;99697.34;105680;1254;72969;-27
2024/02/15 08:40:14;;;;;;;8.20;3.90;;;;;;;3.79;72.74;99695.28;105940;1254;61724;-27
2024/02/15 08:42:42;;;;;;;;;;;;;;;4.04;70.22;99695.88;105749;1251;61174;-27
2024/02/15 08:45:10;;;;;;;106.30;53.90;;;;;;;3.30;71.41;99694.02;105903;1254;75720;-27
2024/02/15 08:47:38;;;;;;;5.60;3.80;;;;;;;3.37;73.25;99697.16;105772;1253;74594;-27
2024/02/15 08:50:09;;;;;;;11.50;5.80;;;;;;;3.60;72.50;99692.64;105728;1253;74347;-26
2024/02/15 08:52:37;;;;;;;2.50;1.40;;;;;;;3.46;72.13;99696.46;105670;1254;61098;-26
2024/02/15 08:55:09;;;;;;;1.90;1.50;;;;;;;3.30;72.94;99698.14;105653;1253;61124;-27
2024/02/15 08:57:36;;;;;;;1.60;0.90;;;;;;;3.68;72.14;99699.85;105602;1259;75736;-27
2024/02/15 09:03:51;;;;;;;2.30;1.60;;;;;;;3.81;71.03;99706.09;103385;1282;613941;-26
2024/02/15 09:06:19;;;;;;;4.90;2.90;;;;;;;3.89;68.09;99711.84;104847;1267;61457;-26
2024/02/15 09:08:46;;;;;;;25.80;11.50;;;;;;;3.80;70.95;99713.59;104905;1270;61973;-26
2024/02/15 09:11:14;;;;;;;323.30;124.70;;;;;;;3.44;71.45;99714.23;104857;1271;73672;-26
2024/02/15 09:13:41;;;;;;;40.20;14.10;;;;;;;3.36;72.01;99716.78;104876;1271;75001;-27
2024/02/15 09:16:11;;;;;;;123.10;62.00;;;;;;;3.39;72.15;99720.11;104790;1268;207847;-28
2024/02/15 09:18:44;;;;;;;17.20;7.40;;;;;;;4.05;69.28;99722.13;105227;1263;60999;-27
2024/02/15 09:21:12;;;;;;;2.90;1.20;;;;;;;4.67;67.14;99727.32;105086;1267;62482;-27
2024/02/15 09:23:40;;;;;;;13.30;6.20;;;;;;;4.40;66.56;99723.52;104975;1263;74156;-27
2024/02/15 09:26:09;;;;;;;69.50;32.50;;;;;;;3.65;70.23;99731.53;104866;1269;73844;-27
2024/02/15 09:28:37;;;;;;;255.10;145.30;;;;;;;3.34;71.33;99730.09;104883;1263;74485;-27
2024/02/15 09:31:04;;;;;;;181.10;98.90;;;;;;;3.09;72.74;99733.63;104889;1267;61456;-28
2024/02/15 09:33:31;;;;;;;69.10;40.20;;;;;;;3.21;72.66;99735.42;105008;1264;61887;-27
2024/02/15 09:35:59;;;;;;;41.60;24.50;;;;;;;3.28;73.03;99735.98;105079;1268;75228;-27
2024/02/15 09:38:27;;;;;;;22.00;12.00;;;;;;;3.08;73.10;99730.06;105172;1267;76211;-27
2024/02/15 09:40:55;;;;;;;3.90;2.60;;;;;;;2.79;73.48;99726.90;105262;1264;73288;-27
2024/02/15 09:43:25;;;;;;;16.90;11.70;;;;;;;3.54;71.33;99729.77;105164;1267;62063;-27
2024/02/15 09:45:54;;;;;;;5.00;3.00;;;;;;;3.76;70.16;99728.02;104912;1268;61641;-27
2024/02/15 09:48:23;;;;;;;1.80;1.40;;;;;;;3.66;71.07;99727.91;105017;1270;74366;-27
2024/02/15 09:50:52;;;;;;;3.90;2.20;;;;;;;4.03;69.26;99724.45;105103;1268;72829;-28
2024/02/15 09:53:21;;;;;;;4.90;2.30;;;;;;;4.45;68.19;99724.52;105310;1263;74315;-28
2024/02/15 09:55:49;;;;;;;2.70;1.70;;;;;;;4.28;69.00;99724.73;105255;1261;61707;-28
2024/02/15 09:58:17;;;;;;;1.50;1.40;;;;;;;3.59;70.41;99718.56;105415;1260;61905;-28
2024/02/15 10:00:46;;;;;;;0.80;0.70;;;;;;;3.43;71.84;99723.73;105395;1261;74856;-28
2024/02/15 10:03:13;;;;;;;2.20;1.60;;;;;;;4.15;69.42;99722.91;105251;1265;75952;-28
2024/02/15 10:05:41;;;;;;;2.40;1.40;;;;;;;3.72;70.62;99719.92;105099;1264;74490;-28
2024/02/15 10:08:11;;;;;;;1.10;0.80;;;;;;;3.40;71.55;99724.17;105330;1261;61718;-27
2024/02/15 10:10:38;;;;;;;3.60;2.10;;;;;;;3.64;71.88;99722.00;105354;1261;61108;-28
2024/02/15 10:13:06;;;;;;;1.40;1.20;;;;;;;4.02;70.48;99727.45;105644;1260;74849;-28
2024/02/15 10:15:34;;;;;;;7.00;5.80;;;;;;;4.22;68.31;99721.95;105666;1260;76079;-28
2024/02/15 10:18:08;;;;;;;2.30;1.60;;;;;;;3.76;70.22;99720.13;105195;1265;74358;-28
2024/02/15 10:20:38;;;;;;;1.30;1.00;;;;;;;3.26;73.02;99719.27;105642;1260;63088;-27
2024/02/15 10:23:17;;;;;;;1.60;1.40;;;;;;;4.18;69.91;99715.36;105642;1261;61103;-28
2024/02/15 10:25:44;;;;;;;1.80;1.50;;;;;;;3.52;71.19;99711.33;105498;1261;74828;-27
2024/02/15 10:28:12;;;;;;;1.70;1.60;;;;;;;3.68;71.48;99717.70;105631;1259;76296;-26
2024/02/15 10:30:43;;;;;;;1.80;1.30;;;;;;;3.61;70.69;99711.65;105576;1260;74270;-27
2024/02/15 10:33:20;;;;;;;1.60;1.20;;;;;;;3.69;69.94;99709.05;105554;1260;61278;-27
2024/02/15 10:35:48;;;;;;;1.30;1.20;;;;;;;3.61;70.07;99709.55;105393;1263;61173;-26
2024/02/15 10:45:54;;;;;;;1.70;1.10;;;;;;;5.00;66.49;99715.43;102746;1290;599510;-25
2024/02/15 10:48:22;;;;;;;1.40;1.10;;;;;;;5.37;64.80;99710.23;104790;1266;62695;-25
2024/02/15 10:50:50;;;;;;;4.00;1.70;;;;;;;5.42;64.62;99709.30;104885;1269;62866;-28
2024/02/15 10:53:24;;;;;;;3.20;1.60;;;;;;;4.76;66.64;99711.07;105165;1266;72928;-25
2024/02/15 10:56:01;;;;;;;1.40;1.10;;;;;;;4.44;66.73;99715.27;104876;1270;76203;-25
2024/02/15 10:58:35;;;;;;;1.50;1.30;;;;;;;4.41;66.83;99717.30;104601;1267;191662;-25
2024/02/15 11:01:03;;;;;;;;;;;;;;;3.87;69.45;99713.80;105087;1264;62070;-28
2024/02/15 11:03:47;;;;;;;2.70;1.10;;;;;;;3.59;70.57;99714.80;104945;1263;61473;-27
2024/02/15 11:06:15;;;;;;;1.10;0.90;;;;;;;3.64;70.70;99721.12;104898;1263;74994;-27
2024/02/15 11:08:44;;;;;;;1.70;1.20;;;;;;;4.18;69.19;99719.16;105115;1263;77153;-28
2024/02/15 11:11:14;;;;;;;1.40;0.90;;;;;;;4.43;68.13;99721.83;104924;1268;73322;-25
2024/02/15 11:13:45;;;;;;;0.80;0.70;;;;;;;4.12;69.20;99720.81;105136;1264;62874;-25
2024/02/15 11:16:40;;;;;;;1.20;0.70;;;;;;;4.09;68.53;99718.00;105058;1268;61804;-27
2024/02/15 11:19:10;;;;;;;1.90;1.10;;;;;;;3.84;69.33;99713.23;104803;1268;75828;-28
2024/02/15 11:21:56;;;;;;;1.60;1.00;;;;;;;3.44;70.62;99713.36;104966;1263;77163;-27
2024/02/15 11:24:29;;;;;;;0.70;0.70;;;;;;;3.36;72.05;99713.00;104868;1269;74375;-28
2024/02/15 11:27:03;;;;;;;0.90;0.80;;;;;;;3.86;71.11;99711.98;104837;1263;61176;-28
2024/02/15 11:29:51;;;;;;;1.50;1.20;;;;;;;4.04;70.82;99715.47;105148;1263;61020;-28
2024/02/15 11:32:56;;;;;;;1.50;1.00;;;;;;;4.03;69.99;99713.83;105176;1263;75787;-28
2024/02/15 11:35:25;;;;;;;1.80;1.20;;;;;;;4.08;69.95;99711.52;105038;1263;77162;-27
2024/02/15 11:37:59;;;;;;;1.30;0.60;;;;;;;4.11;69.13;99709.67;104811;1266;75502;-28
2024/02/15 11:40:29;;;;;;;1.60;1.40;;;;;;;3.86;69.87;99705.94;104988;1264;61295;-28
2024/02/15 11:42:59;;;;;;;1.40;1.00;;;;;;;3.33;72.61;99706.08;104850;1263;61801;-27
2024/02/15 11:45:41;;;;;;;3.30;2.50;;;;;;;3.92;71.01;99708.45;105134;1268;75831;-27
2024/02/15 11:48:11;;;;;;;6.50;2.20;;;;;;;4.46;68.70;99708.64;105210;1263;76024;-28
2024/02/15 11:50:40;;;;;;;2.10;1.50;;;;;;;4.38;68.74;99709.50;104877;1266;75454;-28
2024/02/15 11:53:09;;;;;;;3.00;1.90;;;;;;;3.99;70.02;99709.35;105136;1263;62003;-25
2024/02/15 11:55:40;;;;;;;2.20;1.70;;;;;;;3.84;71.02;99709.27;104865;1263;61827;-27
2024/02/15 12:20:35;;;;;;;37.90;21.60;;;;;;;3.84;73.80;99700.67;105850;1253;63020;-28
2024/02/15 12:23:06;;;;;;;18.40;10.20;;;;;;;3.69;72.58;99698.10;105874;1256;62840;-25
2024/02/15 12:25:35;;;;;;;15.40;7.30;;;;;;;3.78;72.73;99704.05;105742;1253;74877;-25
2024/02/15 12:28:04;;;;;;;5.60;2.70;;;;;;;3.61;72.83;99703.73;105866;1254;74955;-27
2024/02/15 12:30:36;;;;;;;21.90;16.10;;;;;;;3.22;74.03;99707.04;105856;1256;75477;-28
2024/02/15 12:33:12;;;;;;;9.90;5.20;;;;;;;2.88;74.71;99702.40;105738;1253;62104;-28
2024/02/15 12:35:42;;;;;;;9.90;6.70;;;;;;;2.93;74.81;99703.90;105730;1253;61061;-28
2024/02/15 12:38:14;;;;;;;5.00;3.50;;;;;;;4.14;71.65;99698.33;105879;1253;73528;-28
2024/02/15 12:40:44;;;;;;;5.30;3.70;;;;;;;4.99;68.26;99701.71;105778;1253;77258;-28
2024/02/15 12:43:15;;;;;;;6.20;3.90;;;;;;;5.30;66.54;99704.03;105900;1254;75513;-28
2024/02/15 12:45:43;;;;;;;34.80;18.80;;;;;;;5.24;66.05;99706.54;105928;1258;61148;-28
2024/02/15 12:48:11;;;;;;;8.10;5.40;;;;;;;4.65;67.06;99710.84;105894;1253;61323;-25
2024/02/15 12:50:39;;;;;;;7.60;3.20;;;;;;;4.75;67.56;99712.81;105891;1256;74595;-25
2024/02/15 12:53:08;;;;;;;13.80;8.80;;;;;;;4.54;67.80;99712.40;105711;1253;76135;-25
2024/02/15 12:55:37;;;;;;;4.20;2.50;;;;;;;3.70;71.31;99707.11;105914;1253;75486;-27
2024/02/15 12:58:14;;;;;;;4.20;2.00;;;;;;;3.60;72.11;99710.13;105787;1254;63532;-28
2024/02/15 13:00:43;;;;;;;34.40;17.60;;;;;;;4.04;70.48;99708.11;105740;1258;62859;-28
2024/02/15 13:03:14;;;;;;;22.60;10.40;;;;;;;4.39;69.51;99713.79;105911;1256;74516;-25
2024/02/15 13:05:43;;;;;;;14.70;8.80;;;;;;;4.45;68.77;99720.90;105890;1253;77147;-27
2024/02/15 13:08:15;;;;;;;7.10;4.40;;;;;;;4.63;67.74;99719.56;105914;1253;75398;-28
2024/02/15 13:10:44;;;;;;;4.60;2.90;;;;;;;4.69;67.76;99721.52;105867;1253;61479;-28
2024/02/15 13:13:16;;;;;;;4.50;2.00;;;;;;;4.67;67.48;99718.67;105707;1258;61820;-28
2024/02/15 13:15:44;;;;;;;11.80;6.50;;;;;;;4.49;67.90;99718.30;105732;1254;74797;-28
2024/02/15 13:18:14;;;;;;;4.30;2.80;;;;;;;3.76;71.61;99716.87;105650;1259;76019;-28
2024/02/15 13:20:49;;;;;;;9.40;4.10;;;;;;;4.39;70.09;99718.55;105875;1256;75464;-28
2024/02/15 13:23:22;;;;;;;7.50;3.50;;;;;;;4.93;67.65;99715.92;105887;1253;61864;-27
2024/02/15 13:25:52;;;;;;;17.10;7.40;;;;;;;5.00;66.85;99712.33;105884;1253;61802;-27
2024/02/15 13:28:20;;;;;;;15.80;9.30;;;;;;;4.84;67.83;99719.30;105927;1254;75768;-28
2024/02/15 13:30:49;;;;;;;19.00;9.30;;;;;;;4.07;70.14;99717.39;105858;1256;77123;-27
2024/02/15 13:33:17;;;;;;;12.20;6.40;;;;;;;4.34;69.34;99723.11;105857;1253;75433;-28
2024/02/15 13:35:46;;;;;;;5.20;2.90;;;;;;;4.64;68.15;99723.31;105707;1252;61160;-28
2024/02/15 13:38:14;;;;;;;4.50;2.20;;;;;;;4.65;67.89;99722.39;105883;1251;61780;-28
2024/02/15 13:40:44;;;;;;;126.60;54.40;;;;;;;4.50;68.10;99719.47;105927;1259;75801;-28
2024/02/15 13:43:13;;;;;;;4.60;2.60;;;;;;;4.16;69.76;99720.30;105899;1253;77106;-28
2024/02/15 13:45:41;;;;;;;3.50;2.50;;;;;;;4.29;70.37;99726.25;105925;1254;75504;-28
2024/02/15 13:48:10;;;;;;;2.90;2.20;;;;;;;4.01;70.32;99724.19;105796;1253;62517;-28
2024/02/15 13:50:38;;;;;;;94.70;46.20;;;;;;;4.04;70.78;99723.88;105720;1255;61574;-27